Airport View

Enter ICAO identifier to see the current METAR for that AWOS.

KFNL for example

KPIT 260151Z 03005KT 10SM OVC100 11/M07 A2967

26 Apr 2015 02:35

Phone: 412-472-0145

Other Area AWOS: KAGC - KBVI - KBTP - KAFJ

TAF KPIT 252324Z 2600/2706 04006KT P6SM -SHRA OVC060 FM260400 02006KT P6SM BKN080 FM261500 04005KT P6SM BKN050 FM270000 33008KT P6SM SCT050